createdAt,value
2022-10-06T00:00:18.971Z,5.10
2022-10-06T00:03:06.728Z,7.25
2022-10-06T00:05:34.389Z,6.90
2022-10-06T00:08:03.010Z,5.05
2022-10-06T00:10:31.288Z,4.57
2022-10-06T00:12:58.900Z,5.50
2022-10-06T00:15:28.245Z,6.93
2022-10-06T00:17:56.378Z,8.32
2022-10-06T00:20:24.459Z,3.35
2022-10-06T00:22:52.318Z,7.40
2022-10-06T00:25:21.353Z,4.57
2022-10-06T00:27:50.351Z,6.75
2022-10-06T00:30:20.371Z,6.55
2022-10-06T00:32:52.308Z,8.48
2022-10-06T00:35:20.499Z,5.75
2022-10-06T00:37:48.852Z,6.93
2022-10-06T00:40:36.088Z,8.00
2022-10-06T00:43:05.921Z,7.60
2022-10-06T00:45:33.495Z,7.40
2022-10-06T00:48:04.982Z,6.75
2022-10-06T00:50:32.742Z,6.40
2022-10-06T00:53:00.507Z,7.38
2022-10-06T00:55:28.323Z,6.05
2022-10-06T00:57:56.028Z,4.53
2022-10-06T01:00:23.755Z,5.35
2022-10-06T01:03:00.207Z,5.07
2022-10-06T01:05:29.981Z,7.10
2022-10-06T01:07:57.880Z,4.35
2022-10-06T01:10:25.506Z,7.13
2022-10-06T01:13:11.686Z,6.07
2022-10-06T01:15:43.199Z,5.07
2022-10-06T01:18:13.321Z,3.95
2022-10-06T01:20:50.159Z,4.47
2022-10-06T01:23:18.134Z,6.78
2022-10-06T01:25:47.353Z,7.03
2022-10-06T01:28:15.626Z,6.05
2022-10-06T01:30:52.854Z,5.13
2022-10-06T01:33:22.795Z,5.13
2022-10-06T01:35:52.649Z,3.60
2022-10-06T01:38:21.883Z,5.75
2022-10-06T01:40:53.661Z,5.40
2022-10-06T01:43:21.514Z,4.70
2022-10-06T01:45:59.154Z,3.65
2022-10-06T01:48:27.791Z,4.95
2022-10-06T01:50:58.232Z,5.20
2022-10-06T01:53:25.960Z,6.70
2022-10-06T01:55:57.974Z,4.90
2022-10-06T01:58:26.761Z,7.13
2022-10-06T02:00:55.128Z,4.93
2022-10-06T02:03:22.802Z,4.78
2022-10-06T02:05:50.513Z,6.28
2022-10-06T02:08:18.372Z,6.53
2022-10-06T02:10:47.720Z,8.20
2022-10-06T02:13:21.375Z,4.32
2022-10-06T02:15:49.144Z,5.50
2022-10-06T02:18:16.819Z,7.45
2022-10-06T02:20:44.767Z,5.00
2022-10-06T02:23:14.003Z,6.63
2022-10-06T02:25:41.778Z,4.97
2022-10-06T02:28:09.658Z,5.32
2022-10-06T02:30:37.648Z,8.52
2022-10-06T02:33:05.906Z,5.18
2022-10-06T02:35:33.732Z,5.22
2022-10-06T02:38:01.420Z,10.40
2022-10-06T02:40:29.088Z,4.95
2022-10-06T02:42:58.552Z,4.15
2022-10-06T02:45:26.562Z,7.05
2022-10-06T02:47:54.899Z,4.55
2022-10-06T02:50:23.857Z,5.45
2022-10-06T02:52:51.443Z,5.93
2022-10-06T02:55:20.964Z,7.90
2022-10-06T02:57:49.075Z,6.40
2022-10-06T03:00:16.784Z,5.20
2022-10-06T03:02:48.954Z,7.15
2022-10-06T03:05:16.894Z,7.30
2022-10-06T03:07:44.532Z,5.78
2022-10-06T03:10:12.444Z,6.50
2022-10-06T03:12:40.264Z,4.05
2022-10-06T03:15:08.508Z,6.13
2022-10-06T03:17:36.280Z,5.22
2022-10-06T03:20:04.367Z,6.18
2022-10-06T03:22:33.244Z,4.75
2022-10-06T03:25:00.912Z,4.40
2022-10-06T03:27:28.701Z,5.05
2022-10-06T03:30:01.434Z,6.88
2022-10-06T03:32:32.173Z,4.18
2022-10-06T03:35:00.141Z,6.78
2022-10-06T03:37:29.056Z,5.10
2022-10-06T03:39:57.238Z,5.22
2022-10-06T03:42:25.644Z,7.38
2022-10-06T03:44:54.198Z,7.60
2022-10-06T03:47:22.157Z,4.47
2022-10-06T03:49:50.001Z,5.95
2022-10-06T03:52:20.195Z,3.90
2022-10-06T03:54:51.683Z,4.80
2022-10-06T03:57:19.454Z,4.03
2022-10-06T03:59:47.209Z,4.55
2022-10-06T04:02:16.333Z,5.10
2022-10-06T04:04:44.169Z,5.85
2022-10-06T04:07:12.934Z,5.40
2022-10-06T04:09:41.360Z,4.15
2022-10-06T04:12:11.147Z,6.32
2022-10-06T04:14:40.142Z,5.70
2022-10-06T04:17:09.061Z,5.07
2022-10-06T04:19:39.787Z,5.28
2022-10-06T04:22:08.280Z,3.83
2022-10-06T04:24:36.510Z,12.90
2022-10-06T04:27:23.189Z,7.20
2022-10-06T04:29:57.130Z,4.63
2022-10-06T04:32:24.839Z,5.93
2022-10-06T04:34:52.748Z,5.90
2022-10-06T04:37:21.008Z,4.65
2022-10-06T04:39:49.449Z,5.68
2022-10-06T04:42:18.611Z,4.05
2022-10-06T04:44:46.575Z,11.48
2022-10-06T04:47:14.135Z,9.52
2022-10-06T04:49:41.809Z,8.20
2022-10-06T04:52:09.759Z,9.25
2022-10-06T04:54:39.823Z,4.45
2022-10-06T04:57:09.123Z,6.63
2022-10-06T04:59:55.972Z,8.02
2022-10-06T05:02:25.184Z,7.13
2022-10-06T05:04:57.257Z,6.88
2022-10-06T05:07:26.083Z,4.10
2022-10-06T05:09:55.603Z,4.43
2022-10-06T05:12:23.552Z,3.38
2022-10-06T05:14:51.860Z,8.13
2022-10-06T05:17:19.446Z,4.88
2022-10-06T05:19:48.189Z,5.47
2022-10-06T05:22:15.824Z,4.28
2022-10-06T05:24:44.163Z,7.05
2022-10-06T05:27:12.354Z,5.35
2022-10-06T05:29:40.109Z,4.28
2022-10-06T05:32:09.389Z,4.30
2022-10-06T05:34:37.922Z,5.47
2022-10-06T05:37:06.522Z,5.93
2022-10-06T05:39:35.978Z,4.63
2022-10-06T05:42:03.859Z,7.38
2022-10-06T05:44:32.704Z,3.83
2022-10-06T05:47:03.115Z,6.05
2022-10-06T05:49:30.891Z,5.60
2022-10-06T05:54:32.467Z,5.90
2022-10-06T05:57:01.128Z,6.15
2022-10-06T05:59:30.506Z,8.50
2022-10-06T06:02:00.197Z,4.63
2022-10-06T06:04:38.867Z,2.67
2022-10-06T06:07:07.051Z,5.00
2022-10-06T06:09:34.793Z,4.15
2022-10-06T06:12:04.728Z,6.40
2022-10-06T06:15:00.635Z,2.83
2022-10-06T06:17:33.913Z,5.78
2022-10-06T06:20:05.094Z,5.45
2022-10-06T06:22:32.737Z,3.40
2022-10-06T06:25:00.375Z,6.53
2022-10-06T06:27:28.551Z,5.97
2022-10-06T06:29:57.406Z,5.10
2022-10-06T06:32:26.993Z,6.10
2022-10-06T06:34:55.363Z,8.13
2022-10-06T06:37:22.910Z,6.93
2022-10-06T06:39:50.769Z,8.52
2022-10-06T06:42:18.868Z,5.35
2022-10-06T06:44:50.392Z,4.22
2022-10-06T06:47:26.615Z,4.50
2022-10-06T06:49:55.018Z,2.75
2022-10-06T06:52:26.121Z,4.40
2022-10-06T06:54:54.326Z,2.58
2022-10-06T06:57:22.307Z,6.25
2022-10-06T06:59:52.765Z,5.38
2022-10-06T07:02:21.706Z,3.70
2022-10-06T07:04:49.506Z,3.67
2022-10-06T07:07:21.170Z,5.93
2022-10-06T07:09:49.064Z,6.65
2022-10-06T07:12:18.674Z,5.20
2022-10-06T07:15:25.636Z,6.43
2022-10-06T07:18:16.334Z,5.53
2022-10-06T07:21:02.736Z,6.60
2022-10-06T07:23:48.846Z,3.70
2022-10-06T07:26:20.309Z,5.13
2022-10-06T07:28:49.535Z,4.47
2022-10-06T07:31:19.184Z,3.60
2022-10-06T07:33:48.049Z,4.47
2022-10-06T07:36:16.333Z,5.88
2022-10-06T07:38:44.446Z,6.57
2022-10-06T07:41:19.425Z,4.13
2022-10-06T07:43:54.875Z,4.07
2022-10-06T07:46:23.775Z,4.05
2022-10-06T07:49:00.237Z,6.60
2022-10-06T07:51:28.350Z,6.75
2022-10-06T07:53:58.323Z,6.75
2022-10-06T07:56:46.266Z,4.10
2022-10-06T07:59:15.106Z,6.03
2022-10-06T08:01:44.270Z,4.43
2022-10-06T08:04:12.479Z,5.47
2022-10-06T08:06:41.950Z,7.47
2022-10-06T08:09:09.818Z,4.50
2022-10-06T08:11:37.381Z,6.13
2022-10-06T08:14:05.279Z,7.60
2022-10-06T08:16:32.958Z,6.55
2022-10-06T08:19:00.672Z,7.15
2022-10-06T08:21:30.188Z,5.00
2022-10-06T08:23:58.829Z,3.78
2022-10-06T08:26:27.084Z,4.80
2022-10-06T08:29:00.389Z,4.97
2022-10-06T08:31:28.280Z,6.05
2022-10-06T08:33:57.150Z,3.72
2022-10-06T08:36:30.873Z,4.50
2022-10-06T08:39:00.484Z,6.97
2022-10-06T08:41:28.456Z,5.22
2022-10-06T08:44:18.465Z,8.35
2022-10-06T08:47:00.574Z,5.35
2022-10-06T08:49:33.943Z,5.18
2022-10-06T08:52:17.752Z,8.73
2022-10-06T08:54:51.587Z,8.48
2022-10-06T08:57:34.410Z,5.00
2022-10-06T09:00:03.425Z,7.32
2022-10-06T09:02:33.177Z,6.50
2022-10-06T09:05:03.582Z,7.90
2022-10-06T09:07:48.399Z,7.80
2022-10-06T09:10:35.613Z,4.95
2022-10-06T09:13:07.450Z,4.97
2022-10-06T09:15:55.040Z,9.48
2022-10-06T09:19:03.768Z,9.07
2022-10-06T09:21:35.045Z,5.90
2022-10-06T09:24:06.653Z,8.00
2022-10-06T09:26:34.789Z,8.52
2022-10-06T09:29:03.551Z,7.13
2022-10-06T09:31:32.875Z,7.22
2022-10-06T09:34:05.903Z,8.13
2022-10-06T09:36:33.730Z,17.83
2022-10-06T09:39:01.358Z,11.80
2022-10-06T09:41:44.126Z,8.88
2022-10-06T09:44:24.768Z,7.03
2022-10-06T09:46:52.577Z,8.02
2022-10-06T09:49:21.896Z,8.57
2022-10-06T09:51:58.698Z,6.82
2022-10-06T09:54:28.646Z,6.43
2022-10-06T09:56:58.216Z,7.75
2022-10-06T09:59:26.081Z,6.57
2022-10-06T10:01:55.369Z,6.07
2022-10-06T10:04:26.677Z,10.65
2022-10-06T10:06:54.550Z,7.75
2022-10-06T10:09:26.402Z,5.50
2022-10-06T10:12:20.151Z,11.13
2022-10-06T10:14:48.202Z,7.22
2022-10-06T10:17:33.761Z,6.15
2022-10-06T10:20:02.819Z,7.22
2022-10-06T10:22:42.481Z,5.07
2022-10-06T10:25:29.232Z,8.70
2022-10-06T10:28:00.068Z,5.35
2022-10-06T10:30:28.853Z,6.57
2022-10-06T10:33:11.329Z,7.93
2022-10-06T10:35:41.790Z,5.75
2022-10-06T10:38:14.758Z,7.70
2022-10-06T10:40:51.516Z,6.05
2022-10-06T10:43:22.748Z,4.70
2022-10-06T10:45:54.395Z,6.95
2022-10-06T10:48:45.409Z,6.68
2022-10-06T10:51:16.062Z,7.25
2022-10-06T10:53:51.506Z,6.20
2022-10-06T10:56:21.670Z,6.45
2022-10-06T10:58:53.139Z,9.00
2022-10-06T11:01:34.545Z,7.85
2022-10-06T11:04:02.345Z,5.30
2022-10-06T11:06:46.514Z,4.20
2022-10-06T11:09:19.170Z,6.25
2022-10-06T11:12:07.934Z,7.20
2022-10-06T11:14:49.117Z,4.35
2022-10-06T11:17:23.360Z,6.88
2022-10-06T11:19:56.834Z,3.47
2022-10-06T11:22:32.624Z,4.65
2022-10-06T11:27:52.215Z,3.90
2022-10-06T11:30:20.822Z,7.55
2022-10-06T11:33:09.667Z,4.18
2022-10-06T11:35:42.284Z,3.92
2022-10-06T11:38:27.919Z,4.07
2022-10-06T11:41:23.241Z,6.75
2022-10-06T11:43:54.382Z,5.55
2022-10-06T11:46:31.207Z,4.88
2022-10-06T11:49:19.297Z,5.90
2022-10-06T11:51:46.815Z,3.78
2022-10-06T11:54:36.851Z,3.42
2022-10-06T11:57:04.538Z,3.83
2022-10-06T11:59:32.403Z,5.32
2022-10-06T12:02:00.877Z,4.82
2022-10-06T12:04:29.182Z,5.15
2022-10-06T12:06:57.862Z,6.15
2022-10-06T12:09:32.584Z,7.55
2022-10-06T12:12:22.550Z,7.20
2022-10-06T12:17:47.182Z,3.17
2022-10-06T12:20:21.939Z,6.82
2022-10-06T12:22:56.642Z,5.88
2022-10-06T12:25:35.414Z,5.15
2022-10-06T12:28:03.180Z,4.00
2022-10-06T12:30:43.761Z,4.65
2022-10-06T12:33:18.520Z,7.50
2022-10-06T12:35:47.567Z,6.22
2022-10-06T12:38:34.448Z,4.90
2022-10-06T12:41:02.367Z,4.22
2022-10-06T12:46:36.932Z,4.43
2022-10-06T12:49:07.875Z,2.08
2022-10-06T12:51:38.937Z,6.90
2022-10-06T12:54:10.147Z,4.30
2022-10-06T12:56:41.582Z,3.10
2022-10-06T12:59:24.900Z,3.78
2022-10-06T13:01:54.246Z,4.03
2022-10-06T13:04:34.609Z,6.50
2022-10-06T13:07:08.514Z,3.75
2022-10-06T13:09:37.513Z,4.80
2022-10-06T13:12:24.698Z,4.90
2022-10-06T13:15:11.385Z,6.80
2022-10-06T13:17:57.702Z,4.60
2022-10-06T13:21:01.114Z,6.05
2022-10-06T13:23:31.322Z,4.63
2022-10-06T13:25:59.162Z,8.47
2022-10-06T13:28:31.533Z,6.60
2022-10-06T13:30:59.468Z,6.07
2022-10-06T13:33:29.770Z,4.18
2022-10-06T13:38:26.608Z,6.55
2022-10-06T13:41:12.494Z,5.60
2022-10-06T13:43:43.110Z,5.15
2022-10-06T13:46:11.978Z,8.60
2022-10-06T13:48:44.728Z,5.20
2022-10-06T13:51:17.874Z,6.05
2022-10-06T13:53:47.691Z,10.30
2022-10-06T13:56:34.272Z,11.00
2022-10-06T13:59:16.142Z,7.57
2022-10-06T14:01:43.936Z,5.75
2022-10-06T14:04:13.124Z,7.28
2022-10-06T14:06:54.532Z,8.27
2022-10-06T14:09:26.726Z,6.35
2022-10-06T14:12:01.601Z,6.78
2022-10-06T14:14:29.860Z,4.55
2022-10-06T14:16:58.139Z,9.18
2022-10-06T14:19:34.129Z,6.30
2022-10-06T14:22:02.560Z,5.68
2022-10-06T14:24:34.021Z,5.47
2022-10-06T14:27:02.609Z,5.30
2022-10-06T14:29:31.728Z,11.50
2022-10-06T14:32:09.803Z,7.65
2022-10-06T14:34:37.725Z,8.25
2022-10-06T14:37:05.562Z,7.30
2022-10-06T14:39:33.485Z,10.50
2022-10-06T14:42:01.306Z,11.68
2022-10-06T14:44:28.981Z,7.07
2022-10-06T14:46:57.847Z,6.03
2022-10-06T14:49:26.208Z,11.27
2022-10-06T14:51:56.315Z,10.27
2022-10-06T14:54:24.339Z,7.60
2022-10-06T14:56:55.055Z,6.10
2022-10-06T14:59:22.850Z,5.85
2022-10-06T15:01:50.747Z,6.10
2022-10-06T15:04:20.031Z,8.32
2022-10-06T15:07:07.304Z,10.10
2022-10-06T15:09:35.784Z,5.55
2022-10-06T15:12:03.921Z,9.07
2022-10-06T15:14:33.569Z,7.80
2022-10-06T15:17:01.092Z,9.13
2022-10-06T15:19:28.826Z,10.00
2022-10-06T15:21:56.984Z,6.85
2022-10-06T15:24:26.020Z,9.93
2022-10-06T15:27:12.419Z,9.60
2022-10-06T15:29:40.241Z,9.73
2022-10-06T15:32:08.276Z,9.60
2022-10-06T15:34:37.719Z,12.93
2022-10-06T15:37:06.820Z,11.52
2022-10-06T15:39:37.873Z,11.38
2022-10-06T15:42:06.160Z,14.40
2022-10-06T15:44:34.747Z,16.20
2022-10-06T15:47:04.571Z,13.45
2022-10-06T15:49:38.146Z,12.70
2022-10-06T15:52:06.177Z,12.13
2022-10-06T15:54:38.582Z,15.25
2022-10-06T15:57:08.442Z,16.88
2022-10-06T15:59:36.753Z,13.25
2022-10-06T16:02:07.586Z,9.77
2022-10-06T16:04:39.730Z,10.32
2022-10-06T16:07:11.315Z,12.40
2022-10-06T16:12:12.004Z,8.23
2022-10-06T16:14:39.819Z,12.98
2022-10-06T16:17:07.767Z,14.02
2022-10-06T16:19:40.041Z,12.15
2022-10-06T16:22:11.661Z,13.68
2022-10-06T16:24:39.455Z,10.15
2022-10-06T16:27:07.155Z,13.30
2022-10-06T16:29:35.011Z,13.93
2022-10-06T16:32:02.866Z,12.65
2022-10-06T16:34:31.477Z,9.82
2022-10-06T16:36:59.354Z,9.38
2022-10-06T16:39:27.088Z,12.63
2022-10-06T16:41:54.887Z,13.52
2022-10-06T16:44:22.704Z,11.43
2022-10-06T16:46:50.398Z,13.25
2022-10-06T16:49:18.108Z,11.95
2022-10-06T16:51:46.839Z,12.98
2022-10-06T16:54:15.250Z,8.98
2022-10-06T16:56:44.132Z,12.43
2022-10-06T16:59:18.958Z,12.43
2022-10-06T17:01:47.778Z,14.18
2022-10-06T17:04:18.424Z,10.75
2022-10-06T17:06:47.308Z,12.95
2022-10-06T17:09:16.711Z,11.82
2022-10-06T17:11:48.979Z,11.05
2022-10-06T17:14:17.611Z,17.10
2022-10-06T17:16:47.168Z,14.23
2022-10-06T17:19:16.468Z,14.82
2022-10-06T17:21:47.408Z,11.68
2022-10-06T17:24:20.323Z,14.95
2022-10-06T17:26:49.684Z,12.95
2022-10-06T17:29:19.434Z,12.85
2022-10-06T17:31:48.362Z,11.88
2022-10-06T17:34:20.851Z,10.05
2022-10-06T17:36:51.029Z,18.33
2022-10-06T17:39:22.920Z,11.55
2022-10-06T17:44:22.745Z,9.55
2022-10-06T17:46:51.942Z,11.88
2022-10-06T17:49:20.827Z,9.68
2022-10-06T17:51:50.502Z,8.10
2022-10-06T17:54:20.157Z,12.18
2022-10-06T17:56:48.962Z,14.00
2022-10-06T17:59:18.060Z,7.97
2022-10-06T18:01:45.864Z,8.40
2022-10-06T18:04:17.595Z,10.32
2022-10-06T18:06:46.168Z,10.02
2022-10-06T18:09:14.722Z,14.23
2022-10-06T18:11:44.264Z,14.20
2022-10-06T18:14:12.369Z,10.38
2022-10-06T18:16:40.175Z,8.95
2022-10-06T18:19:09.070Z,13.02
2022-10-06T18:21:38.809Z,10.85
2022-10-06T18:24:17.139Z,10.60
2022-10-06T18:26:45.316Z,14.52
2022-10-06T18:29:13.725Z,12.65
2022-10-06T18:31:41.775Z,10.07
2022-10-06T18:36:09.457Z,14.20
2022-10-06T18:36:59.085Z,11.32
2022-10-06T18:39:31.072Z,10.10
2022-10-06T18:42:02.456Z,14.10
2022-10-06T18:47:35.300Z,12.80
2022-10-06T18:50:03.072Z,14.77
2022-10-06T18:52:30.726Z,12.32
2022-10-06T18:54:58.412Z,12.27
2022-10-06T18:57:27.903Z,12.02
2022-10-06T18:59:55.675Z,11.20
2022-10-06T19:02:23.557Z,11.82
2022-10-06T19:04:52.050Z,12.25
2022-10-06T19:07:19.686Z,12.60
2022-10-06T19:09:47.685Z,12.05
2022-10-06T19:12:15.866Z,13.80
2022-10-06T19:14:47.672Z,11.20
2022-10-06T19:17:16.209Z,13.55
2022-10-06T19:19:51.496Z,9.65
2022-10-06T19:22:24.491Z,9.00
2022-10-06T19:24:52.676Z,9.85
2022-10-06T19:27:24.374Z,10.15
2022-10-06T19:32:23.937Z,9.98
2022-10-06T19:34:52.418Z,12.13
2022-10-06T19:37:20.255Z,10.05
2022-10-06T19:39:50.226Z,10.43
2022-10-06T19:42:37.510Z,9.88
2022-10-06T19:45:06.499Z,11.88
2022-10-06T19:47:34.114Z,16.05
2022-10-06T19:50:08.722Z,10.77
2022-10-06T19:52:38.524Z,10.13
2022-10-06T19:55:06.290Z,11.02
2022-10-06T19:57:33.894Z,15.85
2022-10-06T20:00:01.782Z,12.95
2022-10-06T20:02:29.434Z,13.00
2022-10-06T20:04:57.580Z,10.80
2022-10-06T20:07:27.786Z,10.65
2022-10-06T20:09:56.114Z,13.07
2022-10-06T20:12:25.517Z,10.45
2022-10-06T20:14:54.002Z,10.50
2022-10-06T20:17:22.209Z,11.25
2022-10-06T20:19:54.019Z,10.82
2022-10-06T20:22:25.390Z,11.52
2022-10-06T20:24:53.351Z,11.32
2022-10-06T20:27:20.899Z,11.77
2022-10-06T20:29:48.905Z,11.38
2022-10-06T20:32:16.476Z,10.52
2022-10-06T20:34:44.643Z,10.18
2022-10-06T20:37:12.478Z,11.18
2022-10-06T20:39:59.282Z,12.20
2022-10-06T20:42:27.988Z,9.95
2022-10-06T20:44:55.771Z,9.60
2022-10-06T20:47:23.593Z,10.30
2022-10-06T20:49:55.076Z,12.35
2022-10-06T20:54:52.038Z,11.52
2022-10-06T20:57:19.935Z,14.20
2022-10-06T20:59:47.627Z,14.75
2022-10-06T21:02:15.409Z,16.15
2022-10-06T21:04:45.829Z,12.02
2022-10-06T21:07:13.491Z,11.07
2022-10-06T21:09:41.342Z,10.68
2022-10-06T21:12:09.242Z,12.90
2022-10-06T21:14:37.659Z,15.32
2022-10-06T21:17:06.700Z,12.48
2022-10-06T21:19:38.018Z,11.75
2022-10-06T21:22:05.715Z,11.25
2022-10-06T21:24:33.689Z,13.40
2022-10-06T21:27:01.262Z,9.93
2022-10-06T21:29:28.857Z,12.50
2022-10-06T21:31:56.704Z,12.45
2022-10-06T21:34:24.512Z,12.90
2022-10-06T21:36:52.124Z,12.20
2022-10-06T21:39:20.020Z,10.07
2022-10-06T21:41:47.600Z,12.13
2022-10-06T21:44:16.241Z,10.80
2022-10-06T21:46:47.519Z,10.68
2022-10-06T21:49:16.569Z,15.38
2022-10-06T21:51:47.907Z,13.23
2022-10-06T21:54:15.936Z,13.35
2022-10-06T21:56:43.795Z,9.68
2022-10-06T21:59:11.738Z,12.77
2022-10-06T22:01:41.052Z,12.63
2022-10-06T22:04:09.032Z,11.20
2022-10-06T22:06:37.546Z,10.90
2022-10-06T22:09:07.373Z,11.43
2022-10-06T22:11:36.549Z,10.10
2022-10-06T22:14:05.101Z,11.07
2022-10-06T22:16:34.345Z,13.50
2022-10-06T22:19:03.016Z,15.35
2022-10-06T22:21:33.653Z,11.70
2022-10-06T22:24:06.198Z,13.15
2022-10-06T22:26:34.786Z,13.63
2022-10-06T22:29:03.967Z,10.43
2022-10-06T22:31:33.567Z,8.68
2022-10-06T22:34:07.428Z,10.13
2022-10-06T22:36:35.567Z,13.40
2022-10-06T22:39:03.957Z,11.77
2022-10-06T22:41:33.507Z,11.00
2022-10-06T22:44:01.516Z,12.98
2022-10-06T22:46:36.050Z,12.90
2022-10-06T22:49:05.000Z,15.07
2022-10-06T22:51:33.441Z,10.13
2022-10-06T22:54:01.367Z,12.45
2022-10-06T22:56:30.263Z,10.07
2022-10-06T22:59:01.028Z,13.07
2022-10-06T23:01:29.706Z,15.73
2022-10-06T23:03:58.616Z,11.85
2022-10-06T23:06:26.433Z,14.75
2022-10-06T23:08:53.999Z,9.23
2022-10-06T23:11:22.551Z,14.27
2022-10-06T23:13:50.869Z,12.18
2022-10-06T23:16:18.969Z,12.35
2022-10-06T23:18:46.946Z,13.82
2022-10-06T23:21:27.325Z,9.23
2022-10-06T23:23:56.791Z,11.68
2022-10-06T23:26:24.727Z,16.33
2022-10-06T23:28:53.844Z,12.73
2022-10-06T23:31:22.006Z,18.30
2022-10-06T23:33:49.604Z,11.20
2022-10-06T23:36:17.930Z,14.07
2022-10-06T23:38:46.132Z,13.63
2022-10-06T23:41:14.128Z,9.77
2022-10-06T23:43:41.754Z,11.88
2022-10-06T23:46:09.787Z,11.10
2022-10-06T23:48:37.523Z,11.40
2022-10-06T23:51:06.784Z,9.95
2022-10-06T23:53:35.397Z,12.05
2022-10-06T23:56:03.182Z,15.32
2022-10-06T23:58:30.989Z,10.20
